Time;durP1;ratioP1;P1;durP2;ratioP2;P2;SDS_P1;SDS_P2;PMS_P1;PMS_P2;Temp;Humidity;BMP_temperature;BMP_pressure;BME280_temperature;BME280_humidity;BME280_pressure;Samples;Min_cycle;Max_cycle;Signal;HPM_P1;HPM_P2
2022/01/26 00:00:05;;;;;;;248.65;40.67;;;;;;;;;;5059942;28;20111;-69
2022/01/26 00:08:06;;;;;;;261.50;40.97;;;;;;;;;;5055289;28;20033;-68
2022/01/26 00:10:33;;;;;;;339.65;48.50;;;;;;;;;;5050221;28;20033;-68
2022/01/26 00:12:59;;;;;;;381.00;46.08;;;;;;;;;;5059302;28;20135;-70
2022/01/26 00:15:27;;;;;;;403.98;44.97;;;;;;;;;;5058452;28;20132;-70
2022/01/26 00:17:54;;;;;;;364.02;45.15;;;;;;;;;;5050060;28;20033;-70
2022/01/26 00:41:10;;;;;;;397.75;49.80;;;;;;;;;;5057189;28;20032;-70
2022/01/26 00:43:38;;;;;;;289.02;48.53;;;;;;;;;;5050352;28;20028;-69
2022/01/26 00:46:07;;;;;;;307.17;45.88;;;;;;;;;;5055736;28;20032;-70
2022/01/26 00:48:36;;;;;;;320.33;48.25;;;;;;;;;;5056172;28;20047;-69
2022/01/26 00:51:05;;;;;;;447.58;54.70;;;;;;;;;;5050828;28;20029;-69
2022/01/26 00:53:37;;;;;;;320.55;47.65;;;;;;;;;;5051249;28;20296;-69
2022/01/26 00:56:04;;;;;;;164.40;42.33;;;;;;;;;;5057226;28;20107;-69
2022/01/26 00:58:31;;;;;;;243.23;45.55;;;;;;;;;;5060262;28;20131;-70
2022/01/26 01:00:59;;;;;;;295.77;42.70;;;;;;;;;;5048873;28;20036;-70
2022/01/26 01:03:25;;;;;;;251.80;40.88;;;;;;;;;;5049212;28;20322;-70
2022/01/26 01:05:57;;;;;;;165.85;39.80;;;;;;;;;;5059970;28;20515;-70
2022/01/26 01:08:24;;;;;;;237.80;42.67;;;;;;;;;;5059509;28;20036;-70
2022/01/26 01:10:52;;;;;;;459.40;47.75;;;;;;;;;;5051201;28;20483;-70
2022/01/26 01:13:21;;;;;;;277.52;41.25;;;;;;;;;;5051375;28;20045;-70
2022/01/26 01:15:49;;;;;;;191.15;38.78;;;;;;;;;;5054999;28;20037;-70
2022/01/26 01:18:32;;;;;;;205.63;42.97;;;;;;;;;;5059181;28;20036;-69
2022/01/26 01:31:58;;;;;;;142.10;36.97;;;;;;;;;;5054856;28;20121;-68
2022/01/26 01:34:29;;;;;;;168.60;34.58;;;;;;;;;;5054976;28;20688;-68
2022/01/26 01:36:55;;;;;;;;;;;;;;;;;;5050726;28;20227;-69
2022/01/26 01:39:22;;;;;;;81.10;31.30;;;;;;;;;;5053168;28;20426;-68
2022/01/26 01:41:50;;;;;;;129.15;35.65;;;;;;;;;;5057205;28;20041;-68
2022/01/26 01:44:16;;;;;;;138.20;35.35;;;;;;;;;;5055677;28;20044;-68
2022/01/26 01:46:42;;;;;;;194.18;39.08;;;;;;;;;;5048946;28;20041;-68
2022/01/26 01:49:10;;;;;;;136.20;34.63;;;;;;;;;;5056083;28;20312;-70
2022/01/26 01:51:40;;;;;;;162.85;37.20;;;;;;;;;;5051602;28;20044;-70
2022/01/26 01:54:16;;;;;;;115.90;38.95;;;;;;;;;;5052770;28;20112;-68
2022/01/26 01:56:44;;;;;;;173.50;37.85;;;;;;;;;;5054009;28;20039;-70
2022/01/26 01:59:10;;;;;;;145.98;36.83;;;;;;;;;;5060070;28;20032;-70
2022/01/26 02:01:36;;;;;;;143.93;38.03;;;;;;;;;;5061534;28;20048;-69
2022/01/26 02:04:01;;;;;;;157.10;37.30;;;;;;;;;;5052683;28;20079;-69
2022/01/26 02:06:27;;;;;;;199.25;43.58;;;;;;;;;;5057129;28;20120;-70
2022/01/26 02:08:53;;;;;;;202.30;39.22;;;;;;;;;;5062062;28;20037;-70
2022/01/26 02:11:18;;;;;;;382.58;43.13;;;;;;;;;;5053555;28;20098;-68
2022/01/26 02:14:07;;;;;;;267.10;40.88;;;;;;;;;;5057099;28;20403;-70
2022/01/26 03:02:20;;;;;;;111.35;36.55;;;;;;;;;;5046823;28;20036;-69
2022/01/26 03:04:49;;;;;;;118.60;36.10;;;;;;;;;;5043245;28;20036;-69
2022/01/26 03:07:25;;;;;;;;;;;;;;;;;;5052482;28;20095;-69
2022/01/26 03:10:01;;;;;;;89.72;32.58;;;;;;;;;;5066601;28;20383;-69
2022/01/26 03:12:35;;;;;;;130.63;38.95;;;;;;;;;;5046174;28;20048;-69
2022/01/26 03:15:11;;;;;;;187.18;45.40;;;;;;;;;;5050103;28;20040;-69
2022/01/26 03:20:12;;;;;;;170.52;38.25;;;;;;;;;;5047671;28;20040;-70
2022/01/26 03:28:21;;;;;;;121.85;36.47;;;;;;;;;;5035565;28;20025;-70
2022/01/26 03:35:51;;;;;;;175.20;39.53;;;;;;;;;;5061371;28;20116;-70
2022/01/26 03:41:24;;;;;;;210.93;36.20;;;;;;;;;;5054865;28;20110;-70
2022/01/26 03:43:49;;;;;;;264.77;39.10;;;;;;;;;;5045438;28;20558;-70
2022/01/26 03:46:15;;;;;;;158.35;36.85;;;;;;;;;;5044481;28;20061;-69
2022/01/26 03:48:40;;;;;;;244.07;38.72;;;;;;;;;;5048458;28;20291;-70
2022/01/26 03:51:06;;;;;;;148.43;35.33;;;;;;;;;;5050245;28;20480;-70
2022/01/26 03:53:32;;;;;;;191.15;38.35;;;;;;;;;;5053014;28;20024;-70
2022/01/26 03:55:58;;;;;;;218.63;41.05;;;;;;;;;;5057322;28;20051;-70
2022/01/26 03:58:23;;;;;;;351.05;41.65;;;;;;;;;;5044241;28;20396;-70
2022/01/26 04:00:49;;;;;;;290.73;38.33;;;;;;;;;;5048900;28;20090;-69
2022/01/26 04:03:14;;;;;;;289.73;44.00;;;;;;;;;;5052194;28;20033;-69
2022/01/26 04:05:40;;;;;;;407.15;43.70;;;;;;;;;;5047350;28;20044;-70
2022/01/26 04:08:13;;;;;;;204.32;39.28;;;;;;;;;;5044207;28;20103;-70
2022/01/26 04:13:13;;;;;;;407.48;40.38;;;;;;;;;;5049088;28;20098;-69
2022/01/26 04:15:38;;;;;;;234.65;40.00;;;;;;;;;;5045768;28;20431;-69
2022/01/26 04:18:08;;;;;;;291.60;41.63;;;;;;;;;;5043933;28;20064;-69
2022/01/26 04:20:40;;;;;;;184.00;37.33;;;;;;;;;;5056484;28;20130;-68
2022/01/26 04:23:12;;;;;;;185.20;40.40;;;;;;;;;;5050572;28;20676;-70
2022/01/26 04:25:40;;;;;;;212.40;43.67;;;;;;;;;;5052455;28;20043;-70
2022/01/26 04:28:10;;;;;;;181.07;41.88;;;;;;;;;;5052968;28;20040;-70
2022/01/26 04:30:36;;;;;;;239.60;47.38;;;;;;;;;;5047853;28;20072;-68
2022/01/26 04:33:04;;;;;;;186.18;40.67;;;;;;;;;;5061667;28;20079;-70
2022/01/26 04:35:30;;;;;;;203.73;41.58;;;;;;;;;;5047903;28;20103;-69
2022/01/26 04:40:30;;;;;;;218.95;43.63;;;;;;;;;;5046853;28;20127;-68
2022/01/26 04:43:02;;;;;;;257.17;39.28;;;;;;;;;;5052864;28;20090;-70
2022/01/26 04:45:28;;;;;;;181.18;38.33;;;;;;;;;;5047363;28;20029;-68
2022/01/26 04:47:53;;;;;;;334.98;48.03;;;;;;;;;;5042533;28;20137;-70
2022/01/26 04:50:19;;;;;;;185.50;38.15;;;;;;;;;;5050769;28;20496;-68
2022/01/26 04:52:46;;;;;;;285.92;47.75;;;;;;;;;;5046350;28;20040;-70
2022/01/26 04:55:13;;;;;;;281.17;44.25;;;;;;;;;;5042798;28;20047;-70
2022/01/26 04:57:39;;;;;;;217.68;41.10;;;;;;;;;;5051099;28;20032;-70
2022/01/26 05:00:06;;;;;;;291.88;46.63;;;;;;;;;;5047677;28;20078;-69
2022/01/26 05:02:32;;;;;;;293.48;46.35;;;;;;;;;;5046910;28;20120;-69
2022/01/26 05:04:57;;;;;;;231.88;44.25;;;;;;;;;;5050483;28;20104;-69
2022/01/26 05:07:23;;;;;;;246.70;44.75;;;;;;;;;;5059859;28;20465;-69
2022/01/26 05:09:49;;;;;;;255.27;46.85;;;;;;;;;;5046131;28;20577;-69
2022/01/26 05:12:15;;;;;;;261.42;45.80;;;;;;;;;;5045684;28;20039;-69
2022/01/26 05:14:43;;;;;;;216.43;40.00;;;;;;;;;;5047482;28;20072;-70
2022/01/26 05:17:11;;;;;;;232.93;40.92;;;;;;;;;;5058738;28;20084;-69
2022/01/26 05:19:37;;;;;;;250.25;41.30;;;;;;;;;;5039566;28;20032;-69
2022/01/26 05:22:03;;;;;;;269.77;45.53;;;;;;;;;;5049255;28;20029;-69
2022/01/26 05:24:28;;;;;;;244.13;42.60;;;;;;;;;;5048464;28;20040;-70
2022/01/26 05:26:54;;;;;;;269.92;45.05;;;;;;;;;;5041336;28;20037;-69
2022/01/26 05:29:19;;;;;;;251.13;43.97;;;;;;;;;;5046710;28;20398;-69
2022/01/26 05:31:45;;;;;;;241.32;42.28;;;;;;;;;;5051368;28;20155;-69
2022/01/26 05:34:10;;;;;;;220.10;42.45;;;;;;;;;;5051901;28;20503;-69
2022/01/26 05:36:36;;;;;;;230.30;40.60;;;;;;;;;;5048960;28;20408;-69
2022/01/26 05:39:03;;;;;;;202.00;36.15;;;;;;;;;;5050105;28;20120;-69
2022/01/26 05:41:29;;;;;;;217.95;40.92;;;;;;;;;;5055969;28;20041;-70
2022/01/26 05:43:54;;;;;;;248.27;42.53;;;;;;;;;;5050640;28;20040;-70
2022/01/26 05:46:28;;;;;;;219.43;41.30;;;;;;;;;;5052138;28;21207;-69
2022/01/26 05:48:55;;;;;;;252.73;44.28;;;;;;;;;;5051400;28;20163;-69
2022/01/26 05:51:21;;;;;;;244.15;46.63;;;;;;;;;;5053759;28;20120;-69
2022/01/26 05:53:47;;;;;;;200.57;43.40;;;;;;;;;;5053919;28;20048;-69
2022/01/26 05:56:13;;;;;;;181.90;44.72;;;;;;;;;;5059687;28;20037;-69
2022/01/26 05:58:38;;;;;;;169.18;40.20;;;;;;;;;;5049271;28;20187;-70
2022/01/26 06:01:05;;;;;;;154.45;40.58;;;;;;;;;;5051847;28;20057;-70
2022/01/26 06:03:31;;;;;;;171.00;39.75;;;;;;;;;;5058064;28;20060;-71
2022/01/26 06:05:58;;;;;;;189.20;43.67;;;;;;;;;;5059019;28;20072;-70
2022/01/26 06:08:25;;;;;;;200.20;45.65;;;;;;;;;;5054375;28;20040;-68
2022/01/26 06:10:51;;;;;;;228.68;47.13;;;;;;;;;;5050946;28;20164;-70
2022/01/26 06:13:17;;;;;;;247.57;48.00;;;;;;;;;;5044348;28;20121;-68
2022/01/26 06:15:44;;;;;;;259.90;52.75;;;;;;;;;;5055927;28;20107;-68
2022/01/26 06:18:12;;;;;;;210.93;45.65;;;;;;;;;;5050172;28;20025;-68
2022/01/26 06:20:38;;;;;;;265.10;49.30;;;;;;;;;;5049700;28;20787;-69
2022/01/26 06:23:04;;;;;;;289.52;54.83;;;;;;;;;;5049687;28;20039;-68
2022/01/26 06:25:30;;;;;;;270.98;49.60;;;;;;;;;;5045832;28;20041;-70
2022/01/26 06:27:58;;;;;;;230.65;47.75;;;;;;;;;;5050885;28;20508;-69
2022/01/26 06:30:25;;;;;;;233.43;46.47;;;;;;;;;;5048522;28;20116;-70
2022/01/26 06:32:50;;;;;;;235.30;46.97;;;;;;;;;;5049326;28;20651;-69
2022/01/26 06:35:16;;;;;;;281.60;48.53;;;;;;;;;;5054675;28;20033;-70
2022/01/26 06:37:44;;;;;;;278.20;48.88;;;;;;;;;;5056990;28;20638;-69
2022/01/26 06:40:10;;;;;;;259.75;49.22;;;;;;;;;;5058998;28;20032;-69
2022/01/26 06:42:51;;;;;;;241.95;46.65;;;;;;;;;;5048795;28;20495;-69
2022/01/26 06:45:20;;;;;;;224.68;46.08;;;;;;;;;;5054281;28;20108;-70
2022/01/26 06:47:55;;;;;;;251.57;44.92;;;;;;;;;;5050352;28;20032;-70
2022/01/26 06:50:21;;;;;;;220.15;44.65;;;;;;;;;;5058156;28;20033;-70
2022/01/26 06:52:47;;;;;;;269.08;52.63;;;;;;;;;;5047869;28;20215;-70
2022/01/26 06:55:14;;;;;;;192.45;44.22;;;;;;;;;;5046508;28;20269;-70
2022/01/26 06:57:39;;;;;;;271.52;58.50;;;;;;;;;;5051182;28;20420;-70
2022/01/26 07:00:07;;;;;;;235.25;52.72;;;;;;;;;;5050186;28;20041;-70
2022/01/26 07:02:33;;;;;;;232.13;53.00;;;;;;;;;;5049872;28;20048;-69
2022/01/26 07:04:58;;;;;;;190.20;45.13;;;;;;;;;;5047627;28;20223;-69
2022/01/26 07:07:24;;;;;;;181.95;43.05;;;;;;;;;;5070740;28;20032;-70
2022/01/26 07:09:50;;;;;;;179.77;43.88;;;;;;;;;;5061866;28;20065;-68
2022/01/26 07:12:15;;;;;;;156.63;40.33;;;;;;;;;;5050575;28;20036;-68
2022/01/26 07:22:53;;;;;;;133.32;42.88;;;;;;;;;;5046203;28;20687;-68
2022/01/26 07:25:19;;;;;;;128.93;38.85;;;;;;;;;;5048597;28;20328;-68
2022/01/26 07:27:45;;;;;;;128.90;40.55;;;;;;;;;;5055902;28;20040;-70
2022/01/26 07:30:11;;;;;;;107.75;37.35;;;;;;;;;;5049225;28;20037;-68
2022/01/26 07:32:37;;;;;;;126.07;40.72;;;;;;;;;;5046788;28;20039;-68
2022/01/26 07:35:04;;;;;;;107.90;35.50;;;;;;;;;;5051896;28;20035;-68
2022/01/26 07:37:30;;;;;;;92.70;33.53;;;;;;;;;;5053793;28;20045;-68
2022/01/26 07:40:06;;;;;;;97.72;35.08;;;;;;;;;;5053724;28;20029;-68
2022/01/26 07:42:33;;;;;;;113.53;35.58;;;;;;;;;;5049394;28;20408;-68
2022/01/26 07:44:59;;;;;;;88.18;31.90;;;;;;;;;;5054818;28;20044;-69
2022/01/26 07:47:24;;;;;;;81.85;31.58;;;;;;;;;;5056788;28;20028;-69
2022/01/26 07:49:54;;;;;;;82.32;31.10;;;;;;;;;;5045322;28;21062;-69
2022/01/26 07:52:19;;;;;;;;;;;;;;;;;;5049411;28;20152;-69
2022/01/26 07:54:47;;;;;;;80.15;30.58;;;;;;;;;;5047768;28;19999;-70
2022/01/26 07:57:13;;;;;;;71.25;29.42;;;;;;;;;;5047806;28;20036;-69
2022/01/26 07:59:39;;;;;;;71.88;30.73;;;;;;;;;;5050387;28;21099;-69
2022/01/26 08:02:04;;;;;;;91.90;32.55;;;;;;;;;;5049739;28;20295;-69
2022/01/26 08:04:30;;;;;;;85.32;32.10;;;;;;;;;;5047898;28;20400;-70
2022/01/26 08:06:55;;;;;;;104.47;37.28;;;;;;;;;;5050078;28;20033;-70
2022/01/26 08:09:21;;;;;;;99.95;35.67;;;;;;;;;;5055149;28;20036;-70
2022/01/26 08:11:47;;;;;;;105.60;37.35;;;;;;;;;;5049473;28;20079;-70
2022/01/26 08:14:12;;;;;;;86.18;31.42;;;;;;;;;;5049167;28;20028;-70
2022/01/26 08:16:39;;;;;;;72.78;29.90;;;;;;;;;;5045968;28;20450;-69
2022/01/26 08:19:04;;;;;;;94.22;35.67;;;;;;;;;;5056337;28;20567;-68
2022/01/26 08:21:30;;;;;;;102.13;34.47;;;;;;;;;;5046557;28;20132;-69
2022/01/26 08:24:02;;;;;;;103.88;36.22;;;;;;;;;;5045074;28;20044;-69
2022/01/26 08:26:38;;;;;;;94.05;32.72;;;;;;;;;;5046749;28;20115;-70
2022/01/26 08:29:09;;;;;;;93.15;35.00;;;;;;;;;;5051619;28;20029;-70
2022/01/26 08:31:35;;;;;;;94.68;35.75;;;;;;;;;;5047358;28;20029;-69
2022/01/26 08:34:00;;;;;;;103.45;36.10;;;;;;;;;;5048905;28;20499;-69
2022/01/26 08:36:26;;;;;;;77.63;30.67;;;;;;;;;;5047875;28;20418;-69
2022/01/26 08:38:52;;;;;;;81.25;31.63;;;;;;;;;;5047158;28;20047;-69
2022/01/26 08:41:17;;;;;;;82.38;32.65;;;;;;;;;;5047061;28;20067;-69
2022/01/26 08:43:43;;;;;;;84.40;36.75;;;;;;;;;;5048464;28;20492;-70
2022/01/26 08:46:08;;;;;;;77.47;33.17;;;;;;;;;;5057162;28;20098;-70
2022/01/26 08:48:34;;;;;;;76.03;32.05;;;;;;;;;;5053230;28;20033;-70
2022/01/26 08:51:00;;;;;;;87.47;34.67;;;;;;;;;;5051002;28;20035;-70
2022/01/26 08:53:25;;;;;;;81.40;35.15;;;;;;;;;;5050924;28;20048;-69
2022/01/26 08:55:51;;;;;;;54.88;29.13;;;;;;;;;;5052704;28;20461;-70
2022/01/26 08:58:20;;;;;;;58.00;30.33;;;;;;;;;;5048964;28;20755;-69
2022/01/26 09:00:45;;;;;;;69.28;34.60;;;;;;;;;;5041717;28;20068;-70
2022/01/26 09:03:11;;;;;;;74.35;31.92;;;;;;;;;;5034241;28;20359;-69
2022/01/26 09:05:37;;;;;;;66.82;30.17;;;;;;;;;;5045828;28;20036;-69
2022/01/26 09:08:03;;;;;;;71.95;32.08;;;;;;;;;;5051497;28;20033;-69
2022/01/26 09:10:32;;;;;;;76.53;32.28;;;;;;;;;;5039277;28;20524;-69
2022/01/26 09:12:58;;;;;;;61.63;29.67;;;;;;;;;;5044211;28;20033;-69
2022/01/26 09:15:28;;;;;;;56.38;27.65;;;;;;;;;;5045324;28;20067;-70
2022/01/26 09:17:55;;;;;;;56.90;29.20;;;;;;;;;;5047239;28;20483;-70
2022/01/26 09:20:21;;;;;;;60.80;29.83;;;;;;;;;;5046590;28;20103;-70
2022/01/26 09:22:46;;;;;;;58.20;28.15;;;;;;;;;;5046695;28;20033;-70
2022/01/26 09:25:12;;;;;;;68.65;30.40;;;;;;;;;;5050117;28;20349;-69
2022/01/26 09:27:37;;;;;;;62.30;28.73;;;;;;;;;;5056730;28;20593;-70
2022/01/26 09:30:04;;;;;;;69.60;29.92;;;;;;;;;;5046463;28;20045;-70
2022/01/26 09:32:29;;;;;;;68.82;32.22;;;;;;;;;;5044127;28;20062;-69
2022/01/26 09:34:55;;;;;;;71.03;29.83;;;;;;;;;;5045486;28;20037;-69
2022/01/26 09:37:21;;;;;;;81.32;35.15;;;;;;;;;;5049334;28;20041;-69
2022/01/26 09:39:47;;;;;;;89.47;35.28;;;;;;;;;;5053915;28;20041;-68
2022/01/26 09:42:14;;;;;;;66.70;29.95;;;;;;;;;;5045244;28;20033;-72
2022/01/26 09:44:41;;;;;;;58.40;28.65;;;;;;;;;;5045666;28;20032;-68
2022/01/26 09:47:07;;;;;;;59.53;29.58;;;;;;;;;;5055759;28;20029;-69
2022/01/26 09:49:35;;;;;;;65.82;30.25;;;;;;;;;;5052062;28;20550;-70
2022/01/26 09:52:13;;;;;;;72.10;32.60;;;;;;;;;;5049729;28;20033;-70
2022/01/26 09:54:39;;;;;;;69.18;29.88;;;;;;;;;;5052922;28;20106;-70
2022/01/26 09:57:05;;;;;;;61.70;31.73;;;;;;;;;;5042578;28;20526;-70
2022/01/26 09:59:31;;;;;;;57.83;30.20;;;;;;;;;;5042769;28;20131;-68
2022/01/26 10:01:58;;;;;;;70.10;32.25;;;;;;;;;;5048072;28;20040;-68
2022/01/26 10:04:28;;;;;;;70.13;32.72;;;;;;;;;;5049922;28;20037;-70
2022/01/26 10:15:39;;;;;;;59.67;30.42;;;;;;;;;;5021595;28;20536;-70
2022/01/26 10:18:15;;;;;;;72.17;34.00;;;;;;;;;;5023917;28;20319;-68
2022/01/26 10:20:44;;;;;;;62.33;31.63;;;;;;;;;;5035149;28;20103;-68
2022/01/26 10:23:13;;;;;;;53.97;27.00;;;;;;;;;;5014696;28;20134;-70
2022/01/26 10:25:42;;;;;;;60.28;30.25;;;;;;;;;;5022958;28;20049;-70
2022/01/26 10:28:11;;;;;;;65.55;30.20;;;;;;;;;;5030892;28;20033;-69
2022/01/26 10:30:44;;;;;;;59.78;30.33;;;;;;;;;;5022710;28;20033;-69
2022/01/26 10:33:10;;;;;;;64.25;30.05;;;;;;;;;;5026008;28;20048;-69
2022/01/26 10:35:36;;;;;;;56.72;29.02;;;;;;;;;;5032410;28;20037;-69
2022/01/26 10:38:01;;;;;;;45.53;25.70;;;;;;;;;;5023080;28;20059;-69
2022/01/26 10:40:28;;;;;;;51.30;28.70;;;;;;;;;;5023698;28;20049;-69
2022/01/26 10:43:06;;;;;;;70.00;34.47;;;;;;;;;;5028998;28;20041;-69
2022/01/26 10:45:39;;;;;;;65.95;32.33;;;;;;;;;;5040566;28;20461;-69
2022/01/26 10:48:23;;;;;;;61.35;32.70;;;;;;;;;;5049177;28;20150;-70
2022/01/26 10:53:41;;;;;;;72.38;37.25;;;;;;;;;;5051031;28;20032;-69
2022/01/26 10:56:07;;;;;;;62.63;30.40;;;;;;;;;;5044685;28;20063;-69
2022/01/26 10:58:33;;;;;;;61.30;30.38;;;;;;;;;;5050472;28;20044;-69
2022/01/26 11:00:58;;;;;;;67.53;34.72;;;;;;;;;;5042794;28;20029;-69
2022/01/26 11:03:24;;;;;;;48.60;28.88;;;;;;;;;;5047758;28;20120;-69
2022/01/26 11:05:52;;;;;;;73.57;34.15;;;;;;;;;;5048729;28;20120;-69
2022/01/26 11:08:19;;;;;;;65.60;33.55;;;;;;;;;;5050846;28;20032;-69
2022/01/26 11:10:46;;;;;;;68.75;34.83;;;;;;;;;;5049357;28;20094;-69
2022/01/26 11:13:27;;;;;;;65.03;34.13;;;;;;;;;;5050966;28;20124;-69
2022/01/26 11:16:06;;;;;;;65.72;34.20;;;;;;;;;;5047331;28;20044;-69
2022/01/26 11:18:33;;;;;;;58.50;33.23;;;;;;;;;;5046679;28;20123;-70
2022/01/26 11:20:59;;;;;;;47.00;28.88;;;;;;;;;;5050630;28;20323;-69
2022/01/26 11:23:39;;;;;;;65.25;33.90;;;;;;;;;;5049045;28;20523;-69
2022/01/26 11:26:04;;;;;;;63.47;32.72;;;;;;;;;;5047194;28;20032;-69
2022/01/26 11:28:30;;;;;;;57.30;34.03;;;;;;;;;;5048603;28;20381;-70
2022/01/26 11:31:02;;;;;;;65.00;33.95;;;;;;;;;;5047922;28;20043;-70
2022/01/26 11:33:30;;;;;;;59.05;31.92;;;;;;;;;;5049756;28;20055;-69
2022/01/26 11:35:57;;;;;;;64.93;32.08;;;;;;;;;;5047620;28;20655;-69
2022/01/26 11:47:02;;;;;;;55.50;27.40;;;;;;;;;;5048455;28;20052;-70
2022/01/26 11:49:43;;;;;;;54.22;27.63;;;;;;;;;;5050295;28;20036;-70
2022/01/26 11:52:24;;;;;;;60.10;29.50;;;;;;;;;;5047246;28;20130;-70
2022/01/26 11:54:56;;;;;;;48.63;27.70;;;;;;;;;;5053814;28;20051;-70
2022/01/26 11:57:49;;;;;;;65.90;32.50;;;;;;;;;;5047337;28;20538;-70
2022/01/26 12:00:23;;;;;;;61.60;30.35;;;;;;;;;;5044511;28;20029;-70
2022/01/26 12:05:21;;;;;;;55.25;28.50;;;;;;;;;;5048048;28;20068;-69
2022/01/26 12:07:56;;;;;;;60.17;29.17;;;;;;;;;;5047722;28;20476;-70
2022/01/26 12:10:28;;;;;;;56.40;28.85;;;;;;;;;;5049974;28;20090;-68
2022/01/26 12:13:01;;;;;;;47.85;27.00;;;;;;;;;;5049169;28;20051;-69
2022/01/26 12:15:31;;;;;;;53.67;28.45;;;;;;;;;;5049413;28;20633;-70
2022/01/26 12:18:16;;;;;;;71.97;31.85;;;;;;;;;;5048805;28;20303;-69
2022/01/26 12:38:49;;;;;;;67.75;31.85;;;;;;;;;;5051380;28;20597;-69
2022/01/26 12:41:32;;;;;;;70.38;32.75;;;;;;;;;;5041882;28;20025;-69
2022/01/26 12:44:09;;;;;;;67.65;31.85;;;;;;;;;;5046984;28;20041;-68
2022/01/26 12:46:36;;;;;;;71.38;33.35;;;;;;;;;;5047164;28;20492;-69
2022/01/26 12:49:13;;;;;;;63.55;30.65;;;;;;;;;;5046470;28;20500;-69
2022/01/26 12:51:45;;;;;;;64.72;28.45;;;;;;;;;;5051054;28;20036;-69
2022/01/26 12:54:12;;;;;;;71.60;30.70;;;;;;;;;;5045732;28;20041;-69
2022/01/26 12:56:38;;;;;;;76.68;30.88;;;;;;;;;;5047628;28;20044;-69
2022/01/26 12:59:06;;;;;;;69.97;29.00;;;;;;;;;;5058252;28;20036;-69
2022/01/26 13:01:32;;;;;;;70.23;30.63;;;;;;;;;;5045162;28;20107;-69
2022/01/26 13:04:01;;;;;;;78.32;32.85;;;;;;;;;;5052488;28;20029;-70
2022/01/26 13:06:35;;;;;;;73.53;30.52;;;;;;;;;;5048618;28;20048;-69
2022/01/26 13:09:14;;;;;;;83.65;32.88;;;;;;;;;;5051919;28;20040;-67
2022/01/26 13:11:40;;;;;;;80.03;30.27;;;;;;;;;;5052641;28;20049;-69
2022/01/26 13:14:29;;;;;;;83.10;31.63;;;;;;;;;;5046332;28;20107;-69
2022/01/26 13:22:55;;;;;;;101.65;38.40;;;;;;;;;;5049443;28;20127;-70
2022/01/26 13:25:54;;;;;;;68.72;31.00;;;;;;;;;;5052746;28;20049;-69
2022/01/26 13:38:58;;;;;;;56.35;27.60;;;;;;;;;;5048488;28;20502;-68
2022/01/26 13:41:34;;;;;;;68.97;30.45;;;;;;;;;;5052670;28;20139;-68
2022/01/26 13:52:36;;;;;;;50.70;24.75;;;;;;;;;;5052346;28;20044;-69
2022/01/26 14:00:07;;;;;;;46.15;26.20;;;;;;;;;;5051489;28;20492;-70
2022/01/26 14:02:35;;;;;;;60.45;27.88;;;;;;;;;;5051662;28;20045;-68
2022/01/26 14:05:01;;;;;;;57.67;28.45;;;;;;;;;;5050144;28;20396;-68
2022/01/26 14:07:26;;;;;;;58.85;31.05;;;;;;;;;;5054409;28;20047;-68
2022/01/26 14:09:52;;;;;;;50.42;27.40;;;;;;;;;;5048261;28;20507;-70
2022/01/26 14:12:23;;;;;;;59.17;27.77;;;;;;;;;;5052495;28;20041;-67
2022/01/26 14:14:53;;;;;;;55.72;28.15;;;;;;;;;;5046559;28;20053;-69
2022/01/26 14:17:28;;;;;;;62.63;29.27;;;;;;;;;;5052545;28;20047;-69
2022/01/26 14:23:42;;;;;;;70.82;30.08;;;;;;;;;;5048365;28;20627;-68
2022/01/26 14:25:25;;;;;;;66.75;28.05;;;;;;;;;;5045393;28;20083;-68
2022/01/26 14:27:54;;;;;;;57.65;28.63;;;;;;;;;;5050381;28;20064;-69
2022/01/26 14:30:53;;;;;;;50.25;28.05;;;;;;;;;;5047880;28;20124;-68
2022/01/26 15:29:57;;;;;;;72.75;29.25;;;;;;;;;;5030941;28;20071;-68
2022/01/26 15:57:20;;;;;;;76.80;33.65;;;;;;;;;;5045231;28;20488;-69
2022/01/26 16:04:49;;;;;;;82.18;32.92;;;;;;;;;;5045571;28;20044;-68
2022/01/26 16:07:22;;;;;;;58.70;26.88;;;;;;;;;;5057720;28;20025;-68
2022/01/26 16:12:54;;;;;;;82.65;32.50;;;;;;;;;;5045273;28;20033;-68
2022/01/26 18:25:51;;;;;;;60.47;28.10;;;;;;;;;;5053887;28;20476;-69
2022/01/26 18:26:37;;;;;;;65.45;27.45;;;;;;;;;;5060325;28;20044;-70
2022/01/26 18:50:50;;;;;;;60.83;27.40;;;;;;;;;;5051186;28;20055;-69
2022/01/26 18:53:15;;;;;;;60.78;27.50;;;;;;;;;;5049250;28;20036;-70
2022/01/26 18:55:41;;;;;;;51.20;26.00;;;;;;;;;;5065466;28;20139;-71
2022/01/26 18:58:08;;;;;;;59.33;26.52;;;;;;;;;;5059585;28;20354;-70
2022/01/26 19:00:34;;;;;;;73.38;27.55;;;;;;;;;;5048711;28;20036;-71
2022/01/26 19:03:00;;;;;;;62.25;26.45;;;;;;;;;;5050653;28;20029;-70
2022/01/26 19:05:26;;;;;;;64.75;27.98;;;;;;;;;;5048907;28;20047;-71
2022/01/26 19:07:54;;;;;;;63.00;26.27;;;;;;;;;;5048543;28;20033;-70
2022/01/26 19:10:21;;;;;;;58.80;25.45;;;;;;;;;;5050267;28;20043;-70
2022/01/26 19:12:46;;;;;;;59.50;27.95;;;;;;;;;;5066853;28;20039;-69
2022/01/26 19:15:16;;;;;;;63.78;26.80;;;;;;;;;;5059613;28;20033;-70
2022/01/26 19:17:57;;;;;;;57.88;26.33;;;;;;;;;;5054098;28;20385;-70
2022/01/26 19:25:33;;;;;;;54.47;25.40;;;;;;;;;;5048140;28;20420;-70
2022/01/26 19:52:20;;;;;;;80.93;30.95;;;;;;;;;;5026115;28;20053;-70
2022/01/26 19:54:49;;;;;;;60.25;26.15;;;;;;;;;;5033539;28;20049;-70
2022/01/26 19:57:16;;;;;;;69.70;28.40;;;;;;;;;;5037005;28;20061;-70
2022/01/26 19:59:42;;;;;;;61.53;25.85;;;;;;;;;;5028201;28;20041;-70
2022/01/26 20:02:09;;;;;;;66.45;27.17;;;;;;;;;;5028891;28;20037;-69
2022/01/26 20:04:35;;;;;;;69.88;24.98;;;;;;;;;;5038176;28;20033;-70
2022/01/26 20:07:09;;;;;;;59.58;29.80;;;;;;;;;;5015092;28;20664;-70
2022/01/26 20:09:42;;;;;;;51.92;27.20;;;;;;;;;;5026277;28;20040;-70
2022/01/26 20:12:18;;;;;;;53.28;25.52;;;;;;;;;;5024850;28;20300;-70
2022/01/26 20:14:44;;;;;;;52.40;25.55;;;;;;;;;;5025393;28;20048;-70
2022/01/26 20:17:09;;;;;;;52.97;24.75;;;;;;;;;;5033031;28;20614;-70
2022/01/26 20:19:36;;;;;;;54.35;25.77;;;;;;;;;;5027103;28;20125;-70
2022/01/26 20:22:04;;;;;;;58.72;25.95;;;;;;;;;;5023983;28;20045;-70
2022/01/26 20:24:31;;;;;;;60.75;26.45;;;;;;;;;;5028728;28;20087;-70
2022/01/26 20:26:57;;;;;;;59.20;27.38;;;;;;;;;;5046777;28;20447;-70
2022/01/26 20:29:29;;;;;;;55.13;25.52;;;;;;;;;;5047110;28;20702;-70
2022/01/26 20:31:54;;;;;;;61.05;26.50;;;;;;;;;;5042853;28;20049;-69
2022/01/26 20:34:20;;;;;;;63.28;26.90;;;;;;;;;;5042411;28;20039;-69
2022/01/26 20:36:46;;;;;;;67.28;28.55;;;;;;;;;;5046590;28;20076;-69
2022/01/26 20:39:11;;;;;;;56.25;24.95;;;;;;;;;;5046115;28;20155;-70
2022/01/26 20:41:37;;;;;;;58.15;27.40;;;;;;;;;;5044183;28;20040;-69
2022/01/26 20:44:04;;;;;;;58.63;25.25;;;;;;;;;;5046998;28;20302;-69
2022/01/26 20:46:30;;;;;;;66.72;28.25;;;;;;;;;;5053570;28;20056;-69
2022/01/26 20:48:55;;;;;;;60.30;24.73;;;;;;;;;;5045107;28;20624;-68
2022/01/26 20:51:21;;;;;;;64.55;27.27;;;;;;;;;;5045781;28;20496;-69
2022/01/26 20:53:47;;;;;;;42.25;22.45;;;;;;;;;;5046698;28;20170;-70
2022/01/26 20:56:16;;;;;;;46.10;24.30;;;;;;;;;;5047411;28;20040;-69
2022/01/26 20:58:47;;;;;;;51.88;24.65;;;;;;;;;;5042201;28;20040;-69
2022/01/26 21:01:13;;;;;;;51.88;26.00;;;;;;;;;;5045177;28;20041;-69
2022/01/26 21:03:39;;;;;;;56.90;25.88;;;;;;;;;;5052370;28;20408;-70
2022/01/26 21:06:05;;;;;;;48.70;24.98;;;;;;;;;;5055587;28;20029;-69
2022/01/26 21:08:32;;;;;;;60.55;25.38;;;;;;;;;;5044087;28;20392;-69
2022/01/26 21:10:58;;;;;;;57.78;25.92;;;;;;;;;;5047575;28;20516;-69
2022/01/26 21:13:24;;;;;;;50.65;25.02;;;;;;;;;;5041446;28;20057;-70
2022/01/26 21:15:50;;;;;;;55.30;25.00;;;;;;;;;;5043999;28;20294;-70
2022/01/26 21:18:17;;;;;;;53.63;23.50;;;;;;;;;;5048345;28;20594;-70
2022/01/26 21:20:44;;;;;;;47.65;24.10;;;;;;;;;;5055934;28;20041;-70
2022/01/26 21:23:10;;;;;;;45.33;22.75;;;;;;;;;;5049565;28;20029;-70
2022/01/26 21:25:35;;;;;;;65.18;26.77;;;;;;;;;;5047593;28;20032;-70
2022/01/26 21:28:02;;;;;;;52.10;25.60;;;;;;;;;;5055445;28;20036;-68
2022/01/26 21:30:28;;;;;;;64.57;26.98;;;;;;;;;;5048950;28;20041;-70
2022/01/26 21:32:55;;;;;;;50.90;23.38;;;;;;;;;;5046105;28;20036;-70
2022/01/26 21:35:21;;;;;;;54.33;25.20;;;;;;;;;;5050918;28;20442;-71
2022/01/26 21:37:48;;;;;;;51.10;25.27;;;;;;;;;;5057638;28;20453;-70
2022/01/26 21:40:14;;;;;;;52.83;24.63;;;;;;;;;;5045982;28;20095;-69
2022/01/26 21:42:40;;;;;;;53.47;24.92;;;;;;;;;;5046484;28;20472;-69
2022/01/26 21:45:07;;;;;;;47.03;24.17;;;;;;;;;;5047431;28;20044;-71
2022/01/26 21:47:33;;;;;;;56.47;26.63;;;;;;;;;;5046669;28;20124;-70
2022/01/26 21:49:59;;;;;;;51.30;25.70;;;;;;;;;;5049600;28;20443;-71
2022/01/26 21:52:25;;;;;;;55.22;25.73;;;;;;;;;;5047713;28;20056;-70
2022/01/26 21:54:51;;;;;;;60.78;27.73;;;;;;;;;;5040038;28;20060;-70